sensor_id;sensor_type;location;lat;lon;timestamp;temperature;humidity
23081;DHT22;72373;50.562;8.498;2024-01-30T00:01:13;0.20;99.90
23081;DHT22;72373;50.562;8.498;2024-01-30T00:03:39;0.20;99.90
23081;DHT22;72373;50.562;8.498;2024-01-30T00:06:05;0.20;99.90
23081;DHT22;72373;50.562;8.498;2024-01-30T00:08:30;0.10;99.90
23081;DHT22;72373;50.562;8.498;2024-01-30T00:10:56;0.10;99.90
23081;DHT22;72373;50.562;8.498;2024-01-30T00:13:21;0.30;99.90
23081;DHT22;72373;50.562;8.498;2024-01-30T00:15:48;0.00;99.90
23081;DHT22;72373;50.562;8.498;2024-01-30T00:18:14;0.00;99.90
23081;DHT22;72373;50.562;8.498;2024-01-30T00:20:39;0.00;99.90
23081;DHT22;72373;50.562;8.498;2024-01-30T00:23:05;0.00;99.90
23081;DHT22;72373;50.562;8.498;2024-01-30T00:25:30;0.00;99.90
23081;DHT22;72373;50.562;8.498;2024-01-30T00:27:56;0.00;99.90
23081;DHT22;72373;50.562;8.498;2024-01-30T00:30:21;0.00;99.90
23081;DHT22;72373;50.562;8.498;2024-01-30T00:32:47;0.00;99.90
23081;DHT22;72373;50.562;8.498;2024-01-30T00:35:13;0.00;99.90
23081;DHT22;72373;50.562;8.498;2024-01-30T00:37:38;0.00;99.90
23081;DHT22;72373;50.562;8.498;2024-01-30T00:40:04;0.00;99.90
23081;DHT22;72373;50.562;8.498;2024-01-30T00:42:31;0.00;99.90
23081;DHT22;72373;50.562;8.498;2024-01-30T00:44:57;-0.10;99.90
23081;DHT22;72373;50.562;8.498;2024-01-30T00:47:22;-0.10;99.90
23081;DHT22;72373;50.562;8.498;2024-01-30T00:49:48;-0.10;99.90
23081;DHT22;72373;50.562;8.498;2024-01-30T00:52:13;-0.10;99.90
23081;DHT22;72373;50.562;8.498;2024-01-30T00:54:39;-0.10;99.90
23081;DHT22;72373;50.562;8.498;2024-01-30T00:57:05;-0.10;99.90
23081;DHT22;72373;50.562;8.498;2024-01-30T00:59:30;-0.10;99.90
23081;DHT22;72373;50.562;8.498;2024-01-30T01:01:55;-0.10;99.90
23081;DHT22;72373;50.562;8.498;2024-01-30T01:04:21;-0.10;99.90
23081;DHT22;72373;50.562;8.498;2024-01-30T01:06:47;0.00;99.90
23081;DHT22;72373;50.562;8.498;2024-01-30T01:09:13;0.00;99.90
23081;DHT22;72373;50.562;8.498;2024-01-30T01:11:38;0.00;99.90
23081;DHT22;72373;50.562;8.498;2024-01-30T01:14:04;-0.10;99.90
23081;DHT22;72373;50.562;8.498;2024-01-30T01:16:30;-0.10;99.90
23081;DHT22;72373;50.562;8.498;2024-01-30T01:18:56;-0.10;99.90
23081;DHT22;72373;50.562;8.498;2024-01-30T01:21:21;-0.10;99.90
23081;DHT22;72373;50.562;8.498;2024-01-30T01:23:47;-0.10;99.90
23081;DHT22;72373;50.562;8.498;2024-01-30T01:26:12;-0.10;99.90
23081;DHT22;72373;50.562;8.498;2024-01-30T01:28:42;-0.20;99.90
23081;DHT22;72373;50.562;8.498;2024-01-30T01:31:08;-0.20;99.90
23081;DHT22;72373;50.562;8.498;2024-01-30T01:33:33;-0.20;99.90
23081;DHT22;72373;50.562;8.498;2024-01-30T01:35:59;-0.30;99.90
23081;DHT22;72373;50.562;8.498;2024-01-30T01:38:28;-0.30;99.90
23081;DHT22;72373;50.562;8.498;2024-01-30T01:40:53;-0.40;99.90
23081;DHT22;72373;50.562;8.498;2024-01-30T01:43:19;-0.40;99.90
23081;DHT22;72373;50.562;8.498;2024-01-30T01:45:45;-0.50;99.90
23081;DHT22;72373;50.562;8.498;2024-01-30T01:48:11;-0.50;99.90
23081;DHT22;72373;50.562;8.498;2024-01-30T01:50:38;-0.60;99.90
23081;DHT22;72373;50.562;8.498;2024-01-30T01:53:05;-0.60;99.90
23081;DHT22;72373;50.562;8.498;2024-01-30T01:55:31;-0.60;99.90
23081;DHT22;72373;50.562;8.498;2024-01-30T01:57:57;-0.60;99.90
23081;DHT22;72373;50.562;8.498;2024-01-30T02:00:23;-0.50;99.90
23081;DHT22;72373;50.562;8.498;2024-01-30T02:02:49;-0.40;99.90
23081;DHT22;72373;50.562;8.498;2024-01-30T02:05:16;-0.40;99.90
23081;DHT22;72373;50.562;8.498;2024-01-30T02:07:42;-0.50;99.90
23081;DHT22;72373;50.562;8.498;2024-01-30T02:10:09;-0.50;99.90
23081;DHT22;72373;50.562;8.498;2024-01-30T02:12:37;-0.50;99.90
23081;DHT22;72373;50.562;8.498;2024-01-30T02:15:04;-0.50;99.90
23081;DHT22;72373;50.562;8.498;2024-01-30T02:17:30;-0.50;99.90
23081;DHT22;72373;50.562;8.498;2024-01-30T02:19:56;-0.60;99.90
23081;DHT22;72373;50.562;8.498;2024-01-30T02:22:22;-0.60;99.90
23081;DHT22;72373;50.562;8.498;2024-01-30T02:24:48;-0.60;99.90
23081;DHT22;72373;50.562;8.498;2024-01-30T02:27:14;-0.60;99.90
23081;DHT22;72373;50.562;8.498;2024-01-30T02:29:39;-0.60;99.90
23081;DHT22;72373;50.562;8.498;2024-01-30T02:32:05;-0.30;99.90
23081;DHT22;72373;50.562;8.498;2024-01-30T02:34:31;-0.50;99.90
23081;DHT22;72373;50.562;8.498;2024-01-30T02:36:57;-0.50;99.90
23081;DHT22;72373;50.562;8.498;2024-01-30T02:39:22;-0.40;99.90
23081;DHT22;72373;50.562;8.498;2024-01-30T02:41:48;-0.60;99.90
23081;DHT22;72373;50.562;8.498;2024-01-30T02:44:13;-0.50;99.90
23081;DHT22;72373;50.562;8.498;2024-01-30T02:46:39;-0.50;99.90
23081;DHT22;72373;50.562;8.498;2024-01-30T02:49:04;-0.50;99.90
23081;DHT22;72373;50.562;8.498;2024-01-30T02:51:30;-0.50;99.90
23081;DHT22;72373;50.562;8.498;2024-01-30T02:56:22;-0.60;99.90
23081;DHT22;72373;50.562;8.498;2024-01-30T02:58:47;-0.60;99.90
23081;DHT22;72373;50.562;8.498;2024-01-30T03:01:12;-0.60;99.90
23081;DHT22;72373;50.562;8.498;2024-01-30T03:03:38;-0.70;99.90
23081;DHT22;72373;50.562;8.498;2024-01-30T03:06:05;-0.70;99.90
23081;DHT22;72373;50.562;8.498;2024-01-30T03:08:31;-0.80;99.90
23081;DHT22;72373;50.562;8.498;2024-01-30T03:10:57;-0.80;99.90
23081;DHT22;72373;50.562;8.498;2024-01-30T03:13:22;-0.80;99.90
23081;DHT22;72373;50.562;8.498;2024-01-30T03:15:50;-0.80;99.90
23081;DHT22;72373;50.562;8.498;2024-01-30T03:18:15;-0.80;99.90
23081;DHT22;72373;50.562;8.498;2024-01-30T03:20:41;-0.80;99.90
23081;DHT22;72373;50.562;8.498;2024-01-30T03:23:06;-0.90;99.90
23081;DHT22;72373;50.562;8.498;2024-01-30T03:25:32;-0.90;99.90
23081;DHT22;72373;50.562;8.498;2024-01-30T03:27:57;-0.90;99.90
23081;DHT22;72373;50.562;8.498;2024-01-30T03:30:23;-0.90;99.90
23081;DHT22;72373;50.562;8.498;2024-01-30T03:32:48;-0.80;99.90
23081;DHT22;72373;50.562;8.498;2024-01-30T03:35:14;-0.70;99.90
23081;DHT22;72373;50.562;8.498;2024-01-30T03:37:40;-0.70;99.90
23081;DHT22;72373;50.562;8.498;2024-01-30T03:40:06;-0.70;99.90
23081;DHT22;72373;50.562;8.498;2024-01-30T03:42:31;-0.80;99.90
23081;DHT22;72373;50.562;8.498;2024-01-30T03:44:57;-0.80;99.90
23081;DHT22;72373;50.562;8.498;2024-01-30T03:47:22;-0.80;99.90
23081;DHT22;72373;50.562;8.498;2024-01-30T03:49:48;-0.90;99.90
23081;DHT22;72373;50.562;8.498;2024-01-30T03:52:13;-0.90;99.90
23081;DHT22;72373;50.562;8.498;2024-01-30T03:54:39;-0.90;99.90
23081;DHT22;72373;50.562;8.498;2024-01-30T03:57:05;-0.90;99.90
23081;DHT22;72373;50.562;8.498;2024-01-30T03:59:30;-0.90;99.90
23081;DHT22;72373;50.562;8.498;2024-01-30T04:01:56;-1.10;99.90
23081;DHT22;72373;50.562;8.498;2024-01-30T04:04:21;-0.90;99.90
23081;DHT22;72373;50.562;8.498;2024-01-30T04:06:47;-0.90;99.90
23081;DHT22;72373;50.562;8.498;2024-01-30T04:09:13;-0.90;99.90
23081;DHT22;72373;50.562;8.498;2024-01-30T04:11:39;-1.00;99.90
23081;DHT22;72373;50.562;8.498;2024-01-30T04:14:05;-1.00;99.90
23081;DHT22;72373;50.562;8.498;2024-01-30T04:16:30;-0.90;99.90
23081;DHT22;72373;50.562;8.498;2024-01-30T04:18:58;-0.90;99.90
23081;DHT22;72373;50.562;8.498;2024-01-30T04:21:23;-0.90;99.90
23081;DHT22;72373;50.562;8.498;2024-01-30T04:23:50;-0.90;99.90
23081;DHT22;72373;50.562;8.498;2024-01-30T04:26:15;-0.90;99.90
23081;DHT22;72373;50.562;8.498;2024-01-30T04:28:42;-0.90;99.90
23081;DHT22;72373;50.562;8.498;2024-01-30T04:31:07;-0.90;99.90
23081;DHT22;72373;50.562;8.498;2024-01-30T04:33:33;-0.90;99.90
23081;DHT22;72373;50.562;8.498;2024-01-30T04:35:58;-0.90;99.90
23081;DHT22;72373;50.562;8.498;2024-01-30T04:38:24;-0.90;99.90
23081;DHT22;72373;50.562;8.498;2024-01-30T04:40:49;-1.00;99.90
23081;DHT22;72373;50.562;8.498;2024-01-30T04:43:15;-0.90;99.90
23081;DHT22;72373;50.562;8.498;2024-01-30T04:45:41;-1.00;99.90
23081;DHT22;72373;50.562;8.498;2024-01-30T04:48:07;-1.00;99.90
23081;DHT22;72373;50.562;8.498;2024-01-30T04:50:32;-1.00;99.90
23081;DHT22;72373;50.562;8.498;2024-01-30T04:52:58;-0.90;99.90
23081;DHT22;72373;50.562;8.498;2024-01-30T04:55:24;-0.90;99.90
23081;DHT22;72373;50.562;8.498;2024-01-30T04:57:49;-0.90;99.90
23081;DHT22;72373;50.562;8.498;2024-01-30T05:00:15;-0.90;99.90
23081;DHT22;72373;50.562;8.498;2024-01-30T05:02:41;-0.90;99.90
23081;DHT22;72373;50.562;8.498;2024-01-30T05:05:06;-0.90;99.90
23081;DHT22;72373;50.562;8.498;2024-01-30T05:07:33;-0.90;99.90
23081;DHT22;72373;50.562;8.498;2024-01-30T05:09:58;-0.90;99.90
23081;DHT22;72373;50.562;8.498;2024-01-30T05:12:24;-1.00;99.90
23081;DHT22;72373;50.562;8.498;2024-01-30T05:14:49;-1.00;99.90
23081;DHT22;72373;50.562;8.498;2024-01-30T05:17:15;-1.00;99.90
23081;DHT22;72373;50.562;8.498;2024-01-30T05:19:42;-0.90;99.90
23081;DHT22;72373;50.562;8.498;2024-01-30T05:22:08;-0.90;99.90
23081;DHT22;72373;50.562;8.498;2024-01-30T05:24:33;-0.90;99.90
23081;DHT22;72373;50.562;8.498;2024-01-30T05:26:58;-0.90;99.90
23081;DHT22;72373;50.562;8.498;2024-01-30T05:29:24;-0.90;99.90
23081;DHT22;72373;50.562;8.498;2024-01-30T05:31:49;-1.10;99.90
23081;DHT22;72373;50.562;8.498;2024-01-30T05:34:15;-1.00;99.90
23081;DHT22;72373;50.562;8.498;2024-01-30T05:36:41;-1.00;99.90
23081;DHT22;72373;50.562;8.498;2024-01-30T05:39:06;-1.00;99.90
23081;DHT22;72373;50.562;8.498;2024-01-30T05:41:32;-1.10;99.90
23081;DHT22;72373;50.562;8.498;2024-01-30T05:43:58;-1.10;99.90
23081;DHT22;72373;50.562;8.498;2024-01-30T05:46:23;-1.20;99.90
23081;DHT22;72373;50.562;8.498;2024-01-30T05:48:49;-1.10;99.90
23081;DHT22;72373;50.562;8.498;2024-01-30T05:51:14;-1.10;99.90
23081;DHT22;72373;50.562;8.498;2024-01-30T05:53:40;-1.10;99.90
23081;DHT22;72373;50.562;8.498;2024-01-30T05:56:06;-1.10;99.90
23081;DHT22;72373;50.562;8.498;2024-01-30T05:58:32;-1.10;99.90
23081;DHT22;72373;50.562;8.498;2024-01-30T06:00:57;-1.10;99.90
23081;DHT22;72373;50.562;8.498;2024-01-30T06:03:23;-1.10;99.90
23081;DHT22;72373;50.562;8.498;2024-01-30T06:05:49;-1.20;99.90
23081;DHT22;72373;50.562;8.498;2024-01-30T06:08:14;-1.20;99.90
23081;DHT22;72373;50.562;8.498;2024-01-30T06:10:40;-1.20;99.90
23081;DHT22;72373;50.562;8.498;2024-01-30T06:13:05;-1.30;99.90
23081;DHT22;72373;50.562;8.498;2024-01-30T06:15:31;-1.30;99.90
23081;DHT22;72373;50.562;8.498;2024-01-30T06:17:58;-1.30;99.90
23081;DHT22;72373;50.562;8.498;2024-01-30T06:20:24;-1.30;99.90
23081;DHT22;72373;50.562;8.498;2024-01-30T06:22:49;-1.30;99.90
23081;DHT22;72373;50.562;8.498;2024-01-30T06:25:15;-1.30;99.90
23081;DHT22;72373;50.562;8.498;2024-01-30T06:27:42;-1.40;99.90
23081;DHT22;72373;50.562;8.498;2024-01-30T06:30:07;-1.40;99.90
23081;DHT22;72373;50.562;8.498;2024-01-30T06:32:33;-1.40;99.90
23081;DHT22;72373;50.562;8.498;2024-01-30T06:35:00;-1.40;99.90
23081;DHT22;72373;50.562;8.498;2024-01-30T06:37:26;-1.40;99.90
23081;DHT22;72373;50.562;8.498;2024-01-30T06:39:51;-1.40;99.90
23081;DHT22;72373;50.562;8.498;2024-01-30T06:42:18;-1.40;99.90
23081;DHT22;72373;50.562;8.498;2024-01-30T06:44:43;-1.40;99.90
23081;DHT22;72373;50.562;8.498;2024-01-30T06:47:09;-1.40;99.90
23081;DHT22;72373;50.562;8.498;2024-01-30T06:49:35;-1.40;99.90
23081;DHT22;72373;50.562;8.498;2024-01-30T06:52:06;-1.40;99.90
23081;DHT22;72373;50.562;8.498;2024-01-30T06:54:31;-1.40;99.90
23081;DHT22;72373;50.562;8.498;2024-01-30T06:56:58;-1.40;99.90
23081;DHT22;72373;50.562;8.498;2024-01-30T06:59:24;-1.40;99.90
23081;DHT22;72373;50.562;8.498;2024-01-30T07:01:49;-1.00;99.90
23081;DHT22;72373;50.562;8.498;2024-01-30T07:04:15;-1.30;99.90
23081;DHT22;72373;50.562;8.498;2024-01-30T07:06:41;-1.30;99.90
23081;DHT22;72373;50.562;8.498;2024-01-30T07:09:07;-1.30;99.90
23081;DHT22;72373;50.562;8.498;2024-01-30T07:11:33;-1.30;99.90
23081;DHT22;72373;50.562;8.498;2024-01-30T07:13:59;-1.30;99.90
23081;DHT22;72373;50.562;8.498;2024-01-30T07:16:24;-1.20;99.90
23081;DHT22;72373;50.562;8.498;2024-01-30T07:18:50;-1.20;99.90
23081;DHT22;72373;50.562;8.498;2024-01-30T07:21:16;-1.20;99.90
23081;DHT22;72373;50.562;8.498;2024-01-30T07:23:42;-1.20;99.90
23081;DHT22;72373;50.562;8.498;2024-01-30T07:26:08;-1.20;99.90
23081;DHT22;72373;50.562;8.498;2024-01-30T07:28:34;-1.10;99.90
23081;DHT22;72373;50.562;8.498;2024-01-30T07:31:02;-1.10;99.90
23081;DHT22;72373;50.562;8.498;2024-01-30T07:33:28;-1.10;99.90
23081;DHT22;72373;50.562;8.498;2024-01-30T07:35:54;-1.10;99.90
23081;DHT22;72373;50.562;8.498;2024-01-30T07:38:20;-1.10;99.90
23081;DHT22;72373;50.562;8.498;2024-01-30T07:40:45;-1.10;99.90
23081;DHT22;72373;50.562;8.498;2024-01-30T07:43:11;-1.00;99.90
23081;DHT22;72373;50.562;8.498;2024-01-30T07:45:36;-1.00;99.90
23081;DHT22;72373;50.562;8.498;2024-01-30T07:48:05;-0.90;99.90
23081;DHT22;72373;50.562;8.498;2024-01-30T07:50:30;-0.90;99.90
23081;DHT22;72373;50.562;8.498;2024-01-30T07:52:56;-0.80;99.90
23081;DHT22;72373;50.562;8.498;2024-01-30T07:55:22;-0.80;99.90
23081;DHT22;72373;50.562;8.498;2024-01-30T07:57:52;-0.80;99.90
23081;DHT22;72373;50.562;8.498;2024-01-30T08:00:20;-0.70;99.90
23081;DHT22;72373;50.562;8.498;2024-01-30T08:02:46;-0.60;99.90
23081;DHT22;72373;50.562;8.498;2024-01-30T08:05:12;-0.60;99.90
23081;DHT22;72373;50.562;8.498;2024-01-30T08:07:39;-0.50;99.90
23081;DHT22;72373;50.562;8.498;2024-01-30T08:10:05;-0.40;99.90
23081;DHT22;72373;50.562;8.498;2024-01-30T08:12:31;-0.40;99.90
23081;DHT22;72373;50.562;8.498;2024-01-30T08:14:56;-0.40;99.90
23081;DHT22;72373;50.562;8.498;2024-01-30T08:17:22;-0.30;99.90
23081;DHT22;72373;50.562;8.498;2024-01-30T08:19:47;-0.30;99.90
23081;DHT22;72373;50.562;8.498;2024-01-30T08:22:13;-0.20;99.90
23081;DHT22;72373;50.562;8.498;2024-01-30T08:24:39;-0.20;99.90
23081;DHT22;72373;50.562;8.498;2024-01-30T08:27:06;-0.10;99.90
23081;DHT22;72373;50.562;8.498;2024-01-30T08:29:35;-0.10;99.90
23081;DHT22;72373;50.562;8.498;2024-01-30T08:32:00;0.00;99.90
23081;DHT22;72373;50.562;8.498;2024-01-30T08:34:26;0.10;99.90
23081;DHT22;72373;50.562;8.498;2024-01-30T08:36:52;0.10;99.90
23081;DHT22;72373;50.562;8.498;2024-01-30T08:39:18;0.20;99.90
23081;DHT22;72373;50.562;8.498;2024-01-30T08:41:43;0.30;99.90
23081;DHT22;72373;50.562;8.498;2024-01-30T08:44:09;0.30;99.90
23081;DHT22;72373;50.562;8.498;2024-01-30T08:46:36;0.30;99.90
23081;DHT22;72373;50.562;8.498;2024-01-30T08:49:02;0.50;99.90
23081;DHT22;72373;50.562;8.498;2024-01-30T08:51:28;0.60;99.90
23081;DHT22;72373;50.562;8.498;2024-01-30T08:53:53;0.70;99.90
23081;DHT22;72373;50.562;8.498;2024-01-30T08:56:19;0.90;99.90
23081;DHT22;72373;50.562;8.498;2024-01-30T08:58:45;1.00;99.90
23081;DHT22;72373;50.562;8.498;2024-01-30T09:01:10;1.10;99.90
23081;DHT22;72373;50.562;8.498;2024-01-30T09:03:36;1.20;99.90
23081;DHT22;72373;50.562;8.498;2024-01-30T09:06:11;1.30;99.90
23081;DHT22;72373;50.562;8.498;2024-01-30T09:08:37;1.40;99.90
23081;DHT22;72373;50.562;8.498;2024-01-30T09:11:12;1.40;99.90
23081;DHT22;72373;50.562;8.498;2024-01-30T09:13:38;1.50;99.90
23081;DHT22;72373;50.562;8.498;2024-01-30T09:16:04;1.40;99.90
23081;DHT22;72373;50.562;8.498;2024-01-30T09:18:30;1.50;99.90
23081;DHT22;72373;50.562;8.498;2024-01-30T09:20:55;1.60;99.90
23081;DHT22;72373;50.562;8.498;2024-01-30T09:23:21;1.70;99.90
23081;DHT22;72373;50.562;8.498;2024-01-30T09:25:47;1.70;99.90
23081;DHT22;72373;50.562;8.498;2024-01-30T09:28:12;1.80;99.90
23081;DHT22;72373;50.562;8.498;2024-01-30T09:30:38;1.80;99.90
23081;DHT22;72373;50.562;8.498;2024-01-30T09:33:03;1.90;99.90
23081;DHT22;72373;50.562;8.498;2024-01-30T09:35:29;1.90;99.90
23081;DHT22;72373;50.562;8.498;2024-01-30T09:37:55;1.90;99.90
23081;DHT22;72373;50.562;8.498;2024-01-30T09:40:22;1.90;99.90
23081;DHT22;72373;50.562;8.498;2024-01-30T09:42:47;1.90;99.90
23081;DHT22;72373;50.562;8.498;2024-01-30T09:45:20;2.00;99.90
23081;DHT22;72373;50.562;8.498;2024-01-30T09:47:48;2.00;99.90
23081;DHT22;72373;50.562;8.498;2024-01-30T09:50:15;2.20;99.90
23081;DHT22;72373;50.562;8.498;2024-01-30T09:52:41;2.30;99.90
23081;DHT22;72373;50.562;8.498;2024-01-30T09:55:07;2.50;99.90
23081;DHT22;72373;50.562;8.498;2024-01-30T09:57:34;2.70;99.90
23081;DHT22;72373;50.562;8.498;2024-01-30T09:59:59;2.70;99.90
23081;DHT22;72373;50.562;8.498;2024-01-30T10:02:25;2.90;99.90
23081;DHT22;72373;50.562;8.498;2024-01-30T10:04:51;2.90;99.90
23081;DHT22;72373;50.562;8.498;2024-01-30T10:07:20;3.10;99.90
23081;DHT22;72373;50.562;8.498;2024-01-30T10:09:46;3.20;99.90
23081;DHT22;72373;50.562;8.498;2024-01-30T10:12:12;3.30;99.90
23081;DHT22;72373;50.562;8.498;2024-01-30T10:14:42;3.40;99.90
23081;DHT22;72373;50.562;8.498;2024-01-30T10:17:09;3.60;99.90
23081;DHT22;72373;50.562;8.498;2024-01-30T10:19:35;3.70;99.90
23081;DHT22;72373;50.562;8.498;2024-01-30T10:22:01;3.90;99.90
23081;DHT22;72373;50.562;8.498;2024-01-30T10:24:27;3.90;99.90
23081;DHT22;72373;50.562;8.498;2024-01-30T10:26:54;3.90;99.90
23081;DHT22;72373;50.562;8.498;2024-01-30T10:29:20;3.90;99.90
23081;DHT22;72373;50.562;8.498;2024-01-30T10:31:45;3.90;99.90
23081;DHT22;72373;50.562;8.498;2024-01-30T10:34:12;3.60;99.90
23081;DHT22;72373;50.562;8.498;2024-01-30T10:36:42;3.70;99.90
23081;DHT22;72373;50.562;8.498;2024-01-30T10:39:09;3.70;99.90
23081;DHT22;72373;50.562;8.498;2024-01-30T10:41:43;3.80;99.90
23081;DHT22;72373;50.562;8.498;2024-01-30T10:44:10;3.80;99.90
23081;DHT22;72373;50.562;8.498;2024-01-30T10:46:38;3.90;99.90
23081;DHT22;72373;50.562;8.498;2024-01-30T10:49:04;3.90;99.90
23081;DHT22;72373;50.562;8.498;2024-01-30T10:51:31;4.00;99.90
23081;DHT22;72373;50.562;8.498;2024-01-30T10:53:57;4.00;99.90
23081;DHT22;72373;50.562;8.498;2024-01-30T10:56:23;4.10;99.90
23081;DHT22;72373;50.562;8.498;2024-01-30T10:58:50;4.20;99.90
23081;DHT22;72373;50.562;8.498;2024-01-30T11:01:19;4.30;99.90
23081;DHT22;72373;50.562;8.498;2024-01-30T11:03:45;4.50;99.90
23081;DHT22;72373;50.562;8.498;2024-01-30T11:06:11;4.50;99.90
23081;DHT22;72373;50.562;8.498;2024-01-30T11:08:43;4.80;99.90
23081;DHT22;72373;50.562;8.498;2024-01-30T11:11:09;4.90;99.90
23081;DHT22;72373;50.562;8.498;2024-01-30T11:13:36;5.10;99.90
23081;DHT22;72373;50.562;8.498;2024-01-30T11:16:02;5.00;99.90
23081;DHT22;72373;50.562;8.498;2024-01-30T11:18:33;5.10;99.90
23081;DHT22;72373;50.562;8.498;2024-01-30T11:20:59;5.20;99.90
23081;DHT22;72373;50.562;8.498;2024-01-30T11:23:30;5.40;99.90
23081;DHT22;72373;50.562;8.498;2024-01-30T11:25:56;5.90;99.90
23081;DHT22;72373;50.562;8.498;2024-01-30T11:28:23;6.30;99.90
23081;DHT22;72373;50.562;8.498;2024-01-30T11:30:49;6.20;99.90
23081;DHT22;72373;50.562;8.498;2024-01-30T11:33:29;6.00;99.90
23081;DHT22;72373;50.562;8.498;2024-01-30T11:35:57;6.10;99.90
23081;DHT22;72373;50.562;8.498;2024-01-30T11:38:25;6.10;99.90
23081;DHT22;72373;50.562;8.498;2024-01-30T11:40:51;6.00;99.90
23081;DHT22;72373;50.562;8.498;2024-01-30T11:43:18;5.90;99.90
23081;DHT22;72373;50.562;8.498;2024-01-30T11:45:44;5.90;99.90
23081;DHT22;72373;50.562;8.498;2024-01-30T11:48:11;5.90;99.90
23081;DHT22;72373;50.562;8.498;2024-01-30T11:50:38;6.00;99.90
23081;DHT22;72373;50.562;8.498;2024-01-30T11:53:07;6.10;99.90
23081;DHT22;72373;50.562;8.498;2024-01-30T11:55:33;6.30;99.90
23081;DHT22;72373;50.562;8.498;2024-01-30T11:58:01;6.30;99.90
23081;DHT22;72373;50.562;8.498;2024-01-30T12:00:26;6.40;99.90
23081;DHT22;72373;50.562;8.498;2024-01-30T12:02:53;6.50;99.90
23081;DHT22;72373;50.562;8.498;2024-01-30T12:05:23;6.60;99.90
23081;DHT22;72373;50.562;8.498;2024-01-30T12:07:48;6.60;99.90
23081;DHT22;72373;50.562;8.498;2024-01-30T12:10:14;6.60;99.90
23081;DHT22;72373;50.562;8.498;2024-01-30T12:12:42;6.40;99.90
23081;DHT22;72373;50.562;8.498;2024-01-30T12:15:08;6.30;99.90
23081;DHT22;72373;50.562;8.498;2024-01-30T12:17:34;6.50;99.90
23081;DHT22;72373;50.562;8.498;2024-01-30T12:20:05;6.60;99.90
23081;DHT22;72373;50.562;8.498;2024-01-30T12:22:41;6.60;99.90
23081;DHT22;72373;50.562;8.498;2024-01-30T12:25:11;6.60;99.90
23081;DHT22;72373;50.562;8.498;2024-01-30T12:27:38;6.60;99.90
23081;DHT22;72373;50.562;8.498;2024-01-30T12:30:08;6.50;99.90
23081;DHT22;72373;50.562;8.498;2024-01-30T12:32:39;6.50;99.90
23081;DHT22;72373;50.562;8.498;2024-01-30T12:37:39;6.40;99.90
23081;DHT22;72373;50.562;8.498;2024-01-30T12:40:05;6.50;99.90
23081;DHT22;72373;50.562;8.498;2024-01-30T12:42:33;6.70;99.90
23081;DHT22;72373;50.562;8.498;2024-01-30T12:44:59;6.90;99.90
23081;DHT22;72373;50.562;8.498;2024-01-30T12:47:25;7.00;99.90
23081;DHT22;72373;50.562;8.498;2024-01-30T12:49:51;7.20;99.90
23081;DHT22;72373;50.562;8.498;2024-01-30T12:52:21;7.40;99.90
23081;DHT22;72373;50.562;8.498;2024-01-30T12:54:47;7.40;99.90
23081;DHT22;72373;50.562;8.498;2024-01-30T12:57:13;7.50;99.90
23081;DHT22;72373;50.562;8.498;2024-01-30T12:59:38;7.30;99.90
23081;DHT22;72373;50.562;8.498;2024-01-30T13:02:04;7.20;99.90
23081;DHT22;72373;50.562;8.498;2024-01-30T13:04:30;6.80;99.90
23081;DHT22;72373;50.562;8.498;2024-01-30T13:06:56;6.70;99.90
23081;DHT22;72373;50.562;8.498;2024-01-30T13:09:22;6.70;99.90
23081;DHT22;72373;50.562;8.498;2024-01-30T13:11:48;6.90;99.90
23081;DHT22;72373;50.562;8.498;2024-01-30T13:14:14;6.60;99.90
23081;DHT22;72373;50.562;8.498;2024-01-30T13:16:40;6.70;99.90
23081;DHT22;72373;50.562;8.498;2024-01-30T13:19:05;6.80;99.90
23081;DHT22;72373;50.562;8.498;2024-01-30T13:21:31;6.80;99.90
23081;DHT22;72373;50.562;8.498;2024-01-30T13:23:56;6.90;99.90
23081;DHT22;72373;50.562;8.498;2024-01-30T13:26:22;7.00;99.90
23081;DHT22;72373;50.562;8.498;2024-01-30T13:28:47;7.00;99.90
23081;DHT22;72373;50.562;8.498;2024-01-30T13:31:14;6.90;99.90
23081;DHT22;72373;50.562;8.498;2024-01-30T13:33:40;7.10;99.90
23081;DHT22;72373;50.562;8.498;2024-01-30T13:36:09;7.20;99.90
23081;DHT22;72373;50.562;8.498;2024-01-30T13:38:35;7.30;99.90
23081;DHT22;72373;50.562;8.498;2024-01-30T13:41:01;7.30;99.90
23081;DHT22;72373;50.562;8.498;2024-01-30T13:43:26;7.30;99.90
23081;DHT22;72373;50.562;8.498;2024-01-30T13:45:52;7.30;99.90
23081;DHT22;72373;50.562;8.498;2024-01-30T13:48:18;7.30;99.90
23081;DHT22;72373;50.562;8.498;2024-01-30T13:50:44;7.30;99.90
23081;DHT22;72373;50.562;8.498;2024-01-30T13:53:10;7.20;99.90
23081;DHT22;72373;50.562;8.498;2024-01-30T13:55:35;7.10;99.90
23081;DHT22;72373;50.562;8.498;2024-01-30T13:58:01;7.10;99.90
23081;DHT22;72373;50.562;8.498;2024-01-30T14:00:29;7.10;99.90
23081;DHT22;72373;50.562;8.498;2024-01-30T14:02:54;7.10;99.90
23081;DHT22;72373;50.562;8.498;2024-01-30T14:05:20;7.00;99.90
23081;DHT22;72373;50.562;8.498;2024-01-30T14:07:49;7.00;99.90
23081;DHT22;72373;50.562;8.498;2024-01-30T14:10:15;7.00;99.90
23081;DHT22;72373;50.562;8.498;2024-01-30T14:12:44;7.00;99.90
23081;DHT22;72373;50.562;8.498;2024-01-30T14:15:10;7.00;99.90
23081;DHT22;72373;50.562;8.498;2024-01-30T14:17:36;7.00;99.90
23081;DHT22;72373;50.562;8.498;2024-01-30T14:20:05;7.00;99.90
23081;DHT22;72373;50.562;8.498;2024-01-30T14:22:32;7.00;99.90
23081;DHT22;72373;50.562;8.498;2024-01-30T14:24:58;7.00;99.90
23081;DHT22;72373;50.562;8.498;2024-01-30T14:27:24;7.00;99.90
23081;DHT22;72373;50.562;8.498;2024-01-30T14:29:50;7.00;99.90
23081;DHT22;72373;50.562;8.498;2024-01-30T14:32:15;6.90;99.90
23081;DHT22;72373;50.562;8.498;2024-01-30T14:34:41;6.90;99.90
23081;DHT22;72373;50.562;8.498;2024-01-30T14:37:07;6.90;99.90
23081;DHT22;72373;50.562;8.498;2024-01-30T14:39:33;6.90;99.90
23081;DHT22;72373;50.562;8.498;2024-01-30T14:41:59;6.90;99.90
23081;DHT22;72373;50.562;8.498;2024-01-30T14:44:25;7.00;99.90
23081;DHT22;72373;50.562;8.498;2024-01-30T14:46:50;7.00;99.90
23081;DHT22;72373;50.562;8.498;2024-01-30T14:49:16;6.90;99.90
23081;DHT22;72373;50.562;8.498;2024-01-30T14:51:42;7.20;99.90
23081;DHT22;72373;50.562;8.498;2024-01-30T14:54:08;6.90;99.90
23081;DHT22;72373;50.562;8.498;2024-01-30T14:56:33;6.90;99.90
23081;DHT22;72373;50.562;8.498;2024-01-30T14:59:00;7.00;99.90
23081;DHT22;72373;50.562;8.498;2024-01-30T15:01:25;7.20;99.90
23081;DHT22;72373;50.562;8.498;2024-01-30T15:03:51;6.90;99.90
23081;DHT22;72373;50.562;8.498;2024-01-30T15:06:17;6.90;99.90
23081;DHT22;72373;50.562;8.498;2024-01-30T15:08:43;7.00;99.90
23081;DHT22;72373;50.562;8.498;2024-01-30T15:11:08;7.00;99.90
23081;DHT22;72373;50.562;8.498;2024-01-30T15:13:34;7.00;99.90
23081;DHT22;72373;50.562;8.498;2024-01-30T15:15:59;7.00;99.90
23081;DHT22;72373;50.562;8.498;2024-01-30T15:18:25;7.00;99.90
23081;DHT22;72373;50.562;8.498;2024-01-30T15:20:50;7.00;99.90
23081;DHT22;72373;50.562;8.498;2024-01-30T15:23:16;7.00;99.90
23081;DHT22;72373;50.562;8.498;2024-01-30T15:25:42;7.00;99.90
23081;DHT22;72373;50.562;8.498;2024-01-30T15:28:07;6.90;99.90
23081;DHT22;72373;50.562;8.498;2024-01-30T15:30:35;6.90;99.90
23081;DHT22;72373;50.562;8.498;2024-01-30T15:33:00;6.90;99.90
23081;DHT22;72373;50.562;8.498;2024-01-30T15:35:26;6.90;99.90